Terminal Aerodrome Forecast
Issued by NWS

Home | Current Version | Previous Version | Text Only | Print | Product List | Glossary On
Versions: 1 2 3 4 5 6 7 8 9 10 11 12 13 14 15 16 17 18 19 20
000
FTUS45 KGJT 241023 AAB
TAFMTJ
TAF AMD
KMTJ 241023Z 2410/2506 30020G34KT P6SM VCSH OVC060
     FM241300 30008KT P6SM BKN060
     FM241700 32008KT P6SM SCT100
     FM242100 VRB04KT P6SM FEW250=

USA.gov is the U.S. government's official web portal to all federal, state and local government web resources and services.